Time;durP1;ratioP1;P1;durP2;ratioP2;P2;SDS_P1;SDS_P2;PMS_P1;PMS_P2;Temp;Humidity;BMP_temperature;BMP_pressure;BME280_temperature;BME280_humidity;BME280_pressure;Samples;Min_cycle;Max_cycle;Signal;HPM_P1;HPM_P2
2023/12/24 00:01:32;;;;;;;2.47;2.27;;;;;;;;;;5035853;28;20527;-82
2023/12/24 00:04:00;;;;;;;4.60;2.63;;;;;;;;;;5036194;28;20532;-81
2023/12/24 00:06:28;;;;;;;4.23;2.13;;;;;;;;;;5035655;28;20535;-79
2023/12/24 00:08:54;;;;;;;2.80;2.10;;;;;;;;;;5036309;28;21001;-79
2023/12/24 00:11:20;;;;;;;5.23;2.23;;;;;;;;;;5036643;28;20537;-80
2023/12/24 00:13:47;;;;;;;3.73;2.60;;;;;;;;;;5036683;28;20555;-79
2023/12/24 00:16:14;;;;;;;3.87;2.77;;;;;;;;;;5036510;28;20528;-80
2023/12/24 00:18:40;;;;;;;3.63;2.70;;;;;;;;;;5035694;28;20902;-81
2023/12/24 00:21:08;;;;;;;3.07;2.70;;;;;;;;;;5036313;28;20527;-80
2023/12/24 00:23:35;;;;;;;2.83;2.50;;;;;;;;;;5035778;28;20898;-79
2023/12/24 00:26:01;;;;;;;2.93;2.60;;;;;;;;;;5036255;28;20544;-79
2023/12/24 00:28:28;;;;;;;3.83;2.97;;;;;;;;;;5035699;28;21085;-79
2023/12/24 00:30:54;;;;;;;4.50;3.00;;;;;;;;;;5035740;28;20884;-79
2023/12/24 00:33:20;;;;;;;5.60;3.40;;;;;;;;;;5035673;28;20556;-79
2023/12/24 00:35:48;;;;;;;4.67;3.30;;;;;;;;;;5035795;28;20520;-79
2023/12/24 00:38:16;;;;;;;7.80;3.40;;;;;;;;;;5035742;28;21053;-79
2023/12/24 00:40:42;;;;;;;5.70;3.30;;;;;;;;;;5035742;28;20587;-79
2023/12/24 00:43:08;;;;;;;5.17;3.30;;;;;;;;;;5035404;28;20559;-79
2023/12/24 00:45:35;;;;;;;7.30;3.70;;;;;;;;;;5035707;28;20548;-80
2023/12/24 00:48:02;;;;;;;4.87;3.60;;;;;;;;;;5035630;28;20474;-79
2023/12/24 00:50:28;;;;;;;4.33;3.17;;;;;;;;;;5035781;28;20536;-79
2023/12/24 00:52:55;;;;;;;3.93;3.50;;;;;;;;;;5035266;28;21038;-79
2023/12/24 00:55:23;;;;;;;4.27;3.87;;;;;;;;;;5035378;28;20904;-79
2023/12/24 00:57:49;;;;;;;4.60;4.07;;;;;;;;;;5034777;28;20565;-80
2023/12/24 01:00:16;;;;;;;4.30;3.30;;;;;;;;;;5035450;28;20572;-79
2023/12/24 01:02:42;;;;;;;5.77;3.90;;;;;;;;;;5034957;28;20469;-79
2023/12/24 01:05:09;;;;;;;7.17;4.70;;;;;;;;;;5035271;28;20544;-79
2023/12/24 01:07:35;;;;;;;7.20;3.80;;;;;;;;;;5034728;28;20540;-79
2023/12/24 01:10:01;;;;;;;4.03;3.57;;;;;;;;;;5034868;28;20907;-79
2023/12/24 01:12:29;;;;;;;5.17;3.67;;;;;;;;;;5034511;28;20553;-79
2023/12/24 01:14:56;;;;;;;5.10;3.37;;;;;;;;;;5034962;28;20551;-79
2023/12/24 01:17:23;;;;;;;6.67;3.73;;;;;;;;;;5034592;28;20472;-79
2023/12/24 01:19:49;;;;;;;6.60;4.13;;;;;;;;;;5034547;28;20579;-79
2023/12/24 01:22:16;;;;;;;5.37;3.57;;;;;;;;;;5034329;28;21051;-78
2023/12/24 01:24:42;;;;;;;5.53;3.13;;;;;;;;;;5034616;28;20472;-79
2023/12/24 01:27:09;;;;;;;7.30;4.47;;;;;;;;;;5034616;28;20547;-79
2023/12/24 01:29:36;;;;;;;4.23;3.37;;;;;;;;;;5034715;28;20520;-81
2023/12/24 01:32:03;;;;;;;8.93;3.90;;;;;;;;;;5034550;28;20552;-78
2023/12/24 01:34:29;;;;;;;4.53;3.40;;;;;;;;;;5034723;28;20555;-81
2023/12/24 01:36:56;;;;;;;5.23;4.00;;;;;;;;;;5034417;28;20555;-81
2023/12/24 01:39:22;;;;;;;4.50;3.30;;;;;;;;;;5034279;28;21097;-81
2023/12/24 01:41:49;;;;;;;4.67;4.20;;;;;;;;;;5033829;28;20457;-81
2023/12/24 01:44:15;;;;;;;8.07;3.87;;;;;;;;;;5034517;28;20555;-81
2023/12/24 01:46:43;;;;;;;7.07;4.13;;;;;;;;;;5034050;28;21006;-82
2023/12/24 01:49:12;;;;;;;7.10;3.67;;;;;;;;;;5034397;28;20532;-81
2023/12/24 01:51:39;;;;;;;4.60;4.07;;;;;;;;;;5034087;28;20511;-82
2023/12/24 01:54:05;;;;;;;4.70;4.07;;;;;;;;;;5034244;28;21022;-81
2023/12/24 01:56:32;;;;;;;9.33;5.13;;;;;;;;;;5034905;28;20523;-80
2023/12/24 01:58:58;;;;;;;6.97;4.87;;;;;;;;;;5034647;28;20545;-81
2023/12/24 02:01:25;;;;;;;7.93;4.27;;;;;;;;;;5033882;28;20578;-82
2023/12/24 02:03:53;;;;;;;5.73;4.00;;;;;;;;;;5034082;28;20877;-82
2023/12/24 02:06:19;;;;;;;8.27;4.23;;;;;;;;;;5033631;28;20524;-81
2023/12/24 02:08:46;;;;;;;5.90;5.30;;;;;;;;;;5034686;28;20519;-81
2023/12/24 02:11:12;;;;;;;5.13;4.60;;;;;;;;;;5033965;28;20480;-81
2023/12/24 02:13:39;;;;;;;10.47;4.67;;;;;;;;;;5033782;28;20492;-81
2023/12/24 02:16:06;;;;;;;7.83;4.63;;;;;;;;;;5034101;28;20535;-80
2023/12/24 02:18:33;;;;;;;8.83;5.33;;;;;;;;;;5034094;28;20475;-80
2023/12/24 02:21:02;;;;;;;17.00;5.43;;;;;;;;;;5034670;28;20496;-79
2023/12/24 02:23:29;;;;;;;8.63;4.57;;;;;;;;;;5034014;28;20548;-81
2023/12/24 02:25:57;;;;;;;12.53;4.90;;;;;;;;;;5033922;28;21062;-81
2023/12/24 02:28:26;;;;;;;6.07;4.63;;;;;;;;;;5033612;28;20559;-81
2023/12/24 02:30:55;;;;;;;7.13;4.80;;;;;;;;;;5033618;28;20837;-82
2023/12/24 02:33:22;;;;;;;12.27;5.10;;;;;;;;;;5033544;28;20892;-81
2023/12/24 02:35:50;;;;;;;10.80;5.77;;;;;;;;;;5033647;28;20547;-81
2023/12/24 02:38:18;;;;;;;7.43;4.70;;;;;;;;;;5033207;28;20548;-82
2023/12/24 02:40:44;;;;;;;8.20;4.97;;;;;;;;;;5033609;28;20534;-81
2023/12/24 02:43:10;;;;;;;8.47;5.00;;;;;;;;;;5033357;28;20894;-80
2023/12/24 02:45:37;;;;;;;7.13;4.43;;;;;;;;;;5033950;28;20547;-81
2023/12/24 02:48:04;;;;;;;7.53;4.83;;;;;;;;;;5033203;28;20544;-79
2023/12/24 02:50:30;;;;;;;9.70;5.20;;;;;;;;;;5033548;28;20524;-79
2023/12/24 02:52:56;;;;;;;6.40;4.07;;;;;;;;;;5033573;28;21012;-80
2023/12/24 02:55:24;;;;;;;5.90;4.30;;;;;;;;;;5034026;28;20456;-79
2023/12/24 02:57:51;;;;;;;11.53;4.27;;;;;;;;;;5032888;28;21064;-79
2023/12/24 03:00:18;;;;;;;8.50;5.23;;;;;;;;;;5033557;28;20921;-80
2023/12/24 03:02:45;;;;;;;7.60;3.40;;;;;;;;;;5033511;28;20551;-80
2023/12/24 03:05:11;;;;;;;6.60;3.73;;;;;;;;;;5033657;28;20556;-79
2023/12/24 03:07:38;;;;;;;3.93;3.53;;;;;;;;;;5033558;28;20994;-80
2023/12/24 03:10:05;;;;;;;7.23;3.47;;;;;;;;;;5033349;28;20536;-79
2023/12/24 03:12:33;;;;;;;6.00;4.63;;;;;;;;;;5032991;28;21074;-79
2023/12/24 03:14:59;;;;;;;5.60;3.80;;;;;;;;;;5033508;28;20547;-79
2023/12/24 03:17:26;;;;;;;6.23;3.83;;;;;;;;;;5034572;28;20472;-79
2023/12/24 03:19:52;;;;;;;4.03;3.60;;;;;;;;;;5037754;28;20563;-79
2023/12/24 03:22:19;;;;;;;5.73;3.47;;;;;;;;;;5036616;28;21080;-80
2023/12/24 03:24:45;;;;;;;5.20;3.50;;;;;;;;;;5036913;28;20518;-80
2023/12/24 03:27:12;;;;;;;3.30;2.47;;;;;;;;;;5036808;28;20556;-81
2023/12/24 03:29:39;;;;;;;5.17;3.13;;;;;;;;;;5037240;28;20531;-81
2023/12/24 03:32:06;;;;;;;5.63;2.60;;;;;;;;;;5036564;28;21049;-80
2023/12/24 03:34:33;;;;;;;8.23;3.50;;;;;;;;;;5036879;28;20461;-79
2023/12/24 03:36:59;;;;;;;3.57;2.43;;;;;;;;;;5036346;28;21069;-81
2023/12/24 03:39:25;;;;;;;11.53;3.17;;;;;;;;;;5036968;28;20537;-81
2023/12/24 03:41:52;;;;;;;5.77;2.93;;;;;;;;;;5036182;28;20900;-81
2023/12/24 03:44:18;;;;;;;2.60;2.13;;;;;;;;;;5036871;28;20543;-81
2023/12/24 03:46:46;;;;;;;3.80;2.30;;;;;;;;;;5036424;28;20564;-81
2023/12/24 03:49:12;;;;;;;4.20;2.20;;;;;;;;;;5036336;28;20502;-81
2023/12/24 03:51:39;;;;;;;2.10;1.53;;;;;;;;;;5036271;28;20524;-82
2023/12/24 03:54:05;;;;;;;3.17;1.77;;;;;;;;;;5036704;28;20560;-81
2023/12/24 03:56:32;;;;;;;3.33;1.90;;;;;;;;;;5035902;28;20520;-82
2023/12/24 03:58:58;;;;;;;1.50;1.40;;;;;;;;;;5036430;28;20544;-81
2023/12/24 04:01:26;;;;;;;1.77;1.60;;;;;;;;;;5036162;28;20491;-82
2023/12/24 04:03:54;;;;;;;4.17;2.10;;;;;;;;;;5036196;28;20447;-82
2023/12/24 04:06:20;;;;;;;1.57;1.47;;;;;;;;;;5036486;28;20532;-82
2023/12/24 04:08:46;;;;;;;1.50;1.40;;;;;;;;;;5035947;28;20472;-81
2023/12/24 04:11:13;;;;;;;2.23;1.50;;;;;;;;;;5037161;28;20535;-81
2023/12/24 04:13:40;;;;;;;1.63;1.53;;;;;;;;;;5035762;28;20472;-81
2023/12/24 04:16:06;;;;;;;1.70;1.60;;;;;;;;;;5036248;28;20497;-81
2023/12/24 04:18:33;;;;;;;1.63;1.47;;;;;;;;;;5036079;28;20556;-81
2023/12/24 04:21:01;;;;;;;1.27;1.17;;;;;;;;;;5036262;28;20574;-81
2023/12/24 04:23:27;;;;;;;1.70;1.37;;;;;;;;;;5035987;28;20544;-81
2023/12/24 04:25:53;;;;;;;1.17;1.07;;;;;;;;;;5036144;28;20493;-82
2023/12/24 04:28:20;;;;;;;2.37;1.00;;;;;;;;;;5035568;28;20515;-81
2023/12/24 04:30:46;;;;;;;1.13;1.03;;;;;;;;;;5036541;28;21018;-80
2023/12/24 04:33:13;;;;;;;2.00;1.10;;;;;;;;;;5036792;28;20864;-79
2023/12/24 04:35:39;;;;;;;2.10;0.90;;;;;;;;;;5036743;28;20548;-81
2023/12/24 04:38:07;;;;;;;2.70;2.10;;;;;;;;;;5035838;28;20540;-80
2023/12/24 04:40:33;;;;;;;1.20;1.10;;;;;;;;;;5036289;28;20567;-80
2023/12/24 04:43:00;;;;;;;1.03;0.90;;;;;;;;;;5035859;28;20539;-81
2023/12/24 04:45:26;;;;;;;2.23;1.00;;;;;;;;;;5035583;28;21054;-81
2023/12/24 04:47:55;;;;;;;1.10;1.00;;;;;;;;;;5035321;28;20552;-81
2023/12/24 04:50:22;;;;;;;1.83;1.67;;;;;;;;;;5035725;28;20448;-81
2023/12/24 04:52:49;;;;;;;1.97;1.70;;;;;;;;;;5035109;28;20560;-81
2023/12/24 04:55:16;;;;;;;0.80;0.80;;;;;;;;;;5035538;28;20460;-79
2023/12/24 04:57:43;;;;;;;1.23;0.93;;;;;;;;;;5035112;28;20560;-82
2023/12/24 05:00:10;;;;;;;1.40;1.03;;;;;;;;;;5035480;28;20508;-81
2023/12/24 05:02:37;;;;;;;1.60;1.50;;;;;;;;;;5035000;28;20531;-81
2023/12/24 05:05:03;;;;;;;3.17;1.47;;;;;;;;;;5034975;28;20518;-81
2023/12/24 05:07:30;;;;;;;3.70;1.73;;;;;;;;;;5034881;28;20557;-81
2023/12/24 05:09:56;;;;;;;4.50;1.90;;;;;;;;;;5034940;28;21017;-81
2023/12/24 05:12:24;;;;;;;2.60;2.00;;;;;;;;;;5034651;28;21065;-81
2023/12/24 05:14:50;;;;;;;3.73;2.17;;;;;;;;;;5035149;28;20555;-81
2023/12/24 05:17:17;;;;;;;1.77;1.67;;;;;;;;;;5034707;28;20547;-81
2023/12/24 05:19:43;;;;;;;3.70;2.47;;;;;;;;;;5034736;28;20991;-80
2023/12/24 05:22:10;;;;;;;3.27;1.90;;;;;;;;;;5034300;28;20552;-81
2023/12/24 05:24:36;;;;;;;2.63;1.60;;;;;;;;;;5034767;28;21046;-81
2023/12/24 05:27:03;;;;;;;1.50;1.40;;;;;;;;;;5034320;28;20563;-80
2023/12/24 05:29:31;;;;;;;1.37;1.20;;;;;;;;;;5034847;28;20539;-81
2023/12/24 05:31:57;;;;;;;1.63;1.53;;;;;;;;;;5034319;28;20561;-81
2023/12/24 05:34:24;;;;;;;1.10;1.10;;;;;;;;;;5034771;28;20460;-81
2023/12/24 05:36:50;;;;;;;2.70;1.60;;;;;;;;;;5034290;28;20563;-81
2023/12/24 05:39:17;;;;;;;1.63;1.53;;;;;;;;;;5033796;28;21029;-81
2023/12/24 05:41:43;;;;;;;2.80;2.40;;;;;;;;;;5033596;28;20563;-81
2023/12/24 05:44:10;;;;;;;2.07;1.87;;;;;;;;;;5034527;28;20548;-81
2023/12/24 05:46:37;;;;;;;1.60;1.50;;;;;;;;;;5033894;28;20536;-82
2023/12/24 05:49:04;;;;;;;3.67;2.00;;;;;;;;;;5034269;28;21018;-81
2023/12/24 05:51:30;;;;;;;2.13;1.63;;;;;;;;;;5033770;28;20468;-82
2023/12/24 05:53:57;;;;;;;2.67;1.70;;;;;;;;;;5034445;28;20523;-80
2023/12/24 05:56:24;;;;;;;2.37;2.03;;;;;;;;;;5034383;28;20534;-81
2023/12/24 05:58:50;;;;;;;2.03;1.93;;;;;;;;;;5033681;28;20547;-81
2023/12/24 06:01:16;;;;;;;2.10;2.00;;;;;;;;;;5033883;28;20560;-81
2023/12/24 06:03:44;;;;;;;2.40;2.20;;;;;;;;;;5031648;28;20544;-82
2023/12/24 06:06:11;;;;;;;1.93;1.83;;;;;;;;;;5032247;28;20568;-82
2023/12/24 06:08:38;;;;;;;2.00;1.70;;;;;;;;;;5004660;28;20467;-81
2023/12/24 06:11:04;;;;;;;6.27;2.17;;;;;;;;;;5034063;28;20889;-81
2023/12/24 06:13:31;;;;;;;2.17;1.97;;;;;;;;;;5033765;28;21010;-81
2023/12/24 06:15:57;;;;;;;2.70;2.10;;;;;;;;;;5034025;28;20548;-81
2023/12/24 06:18:24;;;;;;;3.33;2.03;;;;;;;;;;5033731;28;20468;-80
2023/12/24 06:20:52;;;;;;;1.50;1.40;;;;;;;;;;5034114;28;20575;-80
2023/12/24 06:23:18;;;;;;;1.50;1.40;;;;;;;;;;5033670;28;20913;-80
2023/12/24 06:25:45;;;;;;;1.50;1.40;;;;;;;;;;5034170;28;20555;-81
2023/12/24 06:28:11;;;;;;;1.60;1.50;;;;;;;;;;5033350;28;20496;-81
2023/12/24 06:30:37;;;;;;;3.87;1.47;;;;;;;;;;5033964;28;20516;-81
2023/12/24 06:33:04;;;;;;;3.00;2.13;;;;;;;;;;5033189;28;20547;-81
2023/12/24 06:35:31;;;;;;;1.83;1.30;;;;;;;;;;5033459;28;21025;-81
2023/12/24 06:37:59;;;;;;;2.53;1.90;;;;;;;;;;5033711;28;20473;-81
2023/12/24 06:40:25;;;;;;;1.87;1.77;;;;;;;;;;5033466;28;20864;-81
2023/12/24 06:42:51;;;;;;;3.50;1.90;;;;;;;;;;5033286;28;20547;-81
2023/12/24 06:45:18;;;;;;;1.80;1.67;;;;;;;;;;5033719;28;20571;-81
2023/12/24 06:47:44;;;;;;;1.57;1.47;;;;;;;;;;5033254;28;20560;-81
2023/12/24 06:50:11;;;;;;;1.63;1.53;;;;;;;;;;5033055;28;20543;-81
2023/12/24 06:52:37;;;;;;;3.57;1.70;;;;;;;;;;5033199;28;21037;-81
2023/12/24 06:55:06;;;;;;;1.97;1.70;;;;;;;;;;5033537;28;20518;-81
2023/12/24 06:57:32;;;;;;;2.47;1.97;;;;;;;;;;5032651;28;20913;-81
2023/12/24 06:59:59;;;;;;;1.30;1.30;;;;;;;;;;5033534;28;20516;-81
2023/12/24 07:02:25;;;;;;;1.40;1.30;;;;;;;;;;5032670;28;20556;-81
2023/12/24 07:04:51;;;;;;;2.20;1.40;;;;;;;;;;5033166;28;20543;-81
2023/12/24 07:07:18;;;;;;;1.53;1.40;;;;;;;;;;5033113;28;20906;-81
2023/12/24 07:09:44;;;;;;;1.47;1.37;;;;;;;;;;5033200;28;20528;-80
2023/12/24 07:12:12;;;;;;;5.00;2.23;;;;;;;;;;5033176;28;20572;-81
2023/12/24 07:14:39;;;;;;;1.50;1.40;;;;;;;;;;5033299;28;20515;-81
2023/12/24 07:17:05;;;;;;;1.60;1.50;;;;;;;;;;5033056;28;20564;-81
2023/12/24 07:19:33;;;;;;;1.93;1.70;;;;;;;;;;5034492;28;20516;-81
2023/12/24 07:21:59;;;;;;;1.57;1.47;;;;;;;;;;5032308;28;20549;-81
2023/12/24 07:24:26;;;;;;;2.10;1.90;;;;;;;;;;5032997;28;21041;-80
2023/12/24 07:26:52;;;;;;;1.67;1.57;;;;;;;;;;5033150;28;20468;-81
2023/12/24 07:29:20;;;;;;;4.33;2.13;;;;;;;;;;5033139;28;20551;-80
2023/12/24 07:31:47;;;;;;;2.13;1.67;;;;;;;;;;5032625;28;20915;-81
2023/12/24 07:34:13;;;;;;;1.70;1.60;;;;;;;;;;5032948;28;20990;-80
2023/12/24 07:36:40;;;;;;;3.37;1.90;;;;;;;;;;5032555;28;20894;-81
2023/12/24 07:39:07;;;;;;;1.93;1.53;;;;;;;;;;5033150;28;20480;-80
2023/12/24 07:41:33;;;;;;;4.70;2.70;;;;;;;;;;5032545;28;20475;-81
2023/12/24 07:44:00;;;;;;;2.23;1.83;;;;;;;;;;5032866;28;21013;-80
2023/12/24 07:46:27;;;;;;;1.70;1.60;;;;;;;;;;5032625;28;20531;-80
2023/12/24 07:48:54;;;;;;;2.13;1.93;;;;;;;;;;5032784;28;20871;-81
2023/12/24 07:51:20;;;;;;;1.43;1.33;;;;;;;;;;5033075;28;20528;-79
2023/12/24 07:53:47;;;;;;;2.20;2.00;;;;;;;;;;5032237;28;21135;-80
2023/12/24 07:56:13;;;;;;;2.70;2.03;;;;;;;;;;5033012;28;20527;-80
2023/12/24 07:58:39;;;;;;;1.37;1.27;;;;;;;;;;5032177;28;20556;-80
2023/12/24 08:01:06;;;;;;;3.10;1.30;;;;;;;;;;5032370;28;20531;-81
2023/12/24 08:03:34;;;;;;;1.07;1.07;;;;;;;;;;5033725;28;21037;-80
2023/12/24 08:06:00;;;;;;;2.43;1.57;;;;;;;;;;5037487;28;20464;-80
2023/12/24 08:08:27;;;;;;;2.00;1.60;;;;;;;;;;5035716;28;20551;-80
2023/12/24 08:10:53;;;;;;;1.90;1.30;;;;;;;;;;5036359;28;20998;-80
2023/12/24 08:13:20;;;;;;;1.40;1.30;;;;;;;;;;5042788;28;20495;-82
2023/12/24 08:15:46;;;;;;;2.70;1.67;;;;;;;;;;5036386;28;20544;-80
2023/12/24 08:18:12;;;;;;;3.70;1.80;;;;;;;;;;5035507;28;20845;-79
2023/12/24 08:20:40;;;;;;;1.70;1.60;;;;;;;;;;5036463;28;20444;-80
2023/12/24 08:23:08;;;;;;;2.40;1.60;;;;;;;;;;5035617;28;20881;-80
2023/12/24 08:25:34;;;;;;;1.80;1.70;;;;;;;;;;5036046;28;20465;-79
2023/12/24 08:28:01;;;;;;;1.53;1.43;;;;;;;;;;5035939;28;20551;-80
2023/12/24 08:30:28;;;;;;;3.83;1.87;;;;;;;;;;5036097;28;20440;-80
2023/12/24 08:32:54;;;;;;;2.30;2.03;;;;;;;;;;5035737;28;20477;-80
2023/12/24 08:35:22;;;;;;;4.83;2.30;;;;;;;;;;5035736;28;20472;-80
2023/12/24 08:37:49;;;;;;;2.80;2.10;;;;;;;;;;5035302;28;20893;-80
2023/12/24 08:40:16;;;;;;;2.53;2.03;;;;;;;;;;5035758;28;21008;-80
2023/12/24 08:42:42;;;;;;;2.63;2.20;;;;;;;;;;5035660;28;21057;-80
2023/12/24 08:45:09;;;;;;;2.43;2.23;;;;;;;;;;5035984;28;20532;-80
2023/12/24 08:47:36;;;;;;;2.40;2.13;;;;;;;;;;5035612;28;20479;-80
2023/12/24 08:50:03;;;;;;;2.33;2.13;;;;;;;;;;5036553;28;20441;-80
2023/12/24 08:52:29;;;;;;;3.17;2.70;;;;;;;;;;5036113;28;20560;-80
2023/12/24 08:54:57;;;;;;;2.90;2.20;;;;;;;;;;5036361;28;20548;-80
2023/12/24 08:57:23;;;;;;;2.73;2.53;;;;;;;;;;5036114;28;20559;-80
2023/12/24 08:59:50;;;;;;;2.77;2.33;;;;;;;;;;5036214;28;20491;-80
2023/12/24 09:02:18;;;;;;;2.53;2.30;;;;;;;;;;5035493;28;20481;-80
2023/12/24 09:04:46;;;;;;;4.67;2.67;;;;;;;;;;5036279;28;20539;-79
2023/12/24 09:07:12;;;;;;;3.20;2.80;;;;;;;;;;5035595;28;20473;-80
2023/12/24 09:09:39;;;;;;;2.60;2.40;;;;;;;;;;5035589;28;20876;-80
2023/12/24 09:12:07;;;;;;;2.83;2.53;;;;;;;;;;5035594;28;20472;-80
2023/12/24 09:14:33;;;;;;;3.43;2.73;;;;;;;;;;5035613;28;20543;-80
2023/12/24 09:17:00;;;;;;;3.23;2.87;;;;;;;;;;5035896;28;20559;-80
2023/12/24 09:19:26;;;;;;;4.40;2.23;;;;;;;;;;5035585;28;20433;-80
2023/12/24 09:21:53;;;;;;;3.63;2.73;;;;;;;;;;5035505;28;20899;-80
2023/12/24 09:24:21;;;;;;;2.37;2.07;;;;;;;;;;5035394;28;20974;-80
2023/12/24 09:26:47;;;;;;;6.13;2.40;;;;;;;;;;5034978;28;20528;-80
2023/12/24 09:29:20;;;;;;;2.50;2.30;;;;;;;;;;5034985;28;20994;-80
2023/12/24 09:31:46;;;;;;;2.63;2.30;;;;;;;;;;5035125;28;20536;-80
2023/12/24 09:34:12;;;;;;;4.53;2.60;;;;;;;;;;5035052;28;20540;-80
2023/12/24 09:36:39;;;;;;;5.27;2.50;;;;;;;;;;5034819;28;20573;-80
2023/12/24 09:39:06;;;;;;;4.23;3.13;;;;;;;;;;5035475;28;20469;-80
2023/12/24 09:41:32;;;;;;;4.23;2.77;;;;;;;;;;5034580;28;20441;-80
2023/12/24 09:43:59;;;;;;;4.30;3.10;;;;;;;;;;5035223;28;20531;-80
2023/12/24 09:46:26;;;;;;;3.07;2.77;;;;;;;;;;5034786;28;20473;-81
2023/12/24 09:48:53;;;;;;;2.70;2.50;;;;;;;;;;5034274;28;20877;-78
2023/12/24 09:51:19;;;;;;;3.13;2.83;;;;;;;;;;5034686;28;20532;-79
2023/12/24 09:53:48;;;;;;;3.10;2.70;;;;;;;;;;5033645;28;20896;-80
2023/12/24 09:56:15;;;;;;;5.37;2.93;;;;;;;;;;5034562;28;20453;-79
2023/12/24 09:58:43;;;;;;;3.90;2.60;;;;;;;;;;5033592;28;20551;-80
2023/12/24 10:01:10;;;;;;;4.47;2.93;;;;;;;;;;5034282;28;20538;-79
2023/12/24 10:03:38;;;;;;;3.73;2.70;;;;;;;;;;5033821;28;20484;-80
2023/12/24 10:06:05;;;;;;;5.60;3.70;;;;;;;;;;5034089;28;20548;-80
2023/12/24 10:08:31;;;;;;;5.70;3.50;;;;;;;;;;5033390;28;20480;-80
2023/12/24 10:10:58;;;;;;;6.70;4.20;;;;;;;;;;5034042;28;20439;-80
2023/12/24 10:13:24;;;;;;;5.60;3.57;;;;;;;;;;5033299;28;20473;-80
2023/12/24 10:16:02;;;;;;;8.60;4.00;;;;;;;;;;5034025;28;20532;-80
2023/12/24 10:18:29;;;;;;;7.30;3.70;;;;;;;;;;5033301;28;21061;-80
2023/12/24 10:21:03;;;;;;;4.23;3.73;;;;;;;;;;5034083;28;20519;-80
2023/12/24 10:23:29;;;;;;;4.90;3.57;;;;;;;;;;5033363;28;20575;-80
2023/12/24 10:26:01;;;;;;;6.00;3.97;;;;;;;;;;5033797;28;20548;-80
2023/12/24 10:28:27;;;;;;;13.83;5.07;;;;;;;;;;5033741;28;20902;-80
2023/12/24 10:31:04;;;;;;;3.80;3.30;;;;;;;;;;5033831;28;20860;-80
2023/12/24 10:33:31;;;;;;;4.70;3.67;;;;;;;;;;5033555;28;20559;-82
2023/12/24 10:35:58;;;;;;;4.63;3.40;;;;;;;;;;5032947;28;20568;-80
2023/12/24 10:38:27;;;;;;;6.83;3.33;;;;;;;;;;5033790;28;20865;-81
2023/12/24 10:40:54;;;;;;;5.57;3.00;;;;;;;;;;5033770;28;20524;-81
2023/12/24 10:43:20;;;;;;;4.10;3.10;;;;;;;;;;5033590;28;20587;-80
2023/12/24 10:45:46;;;;;;;9.47;4.43;;;;;;;;;;5033489;28;21042;-81
2023/12/24 10:48:13;;;;;;;4.07;2.90;;;;;;;;;;5033252;28;20556;-81
2023/12/24 10:50:40;;;;;;;5.53;4.13;;;;;;;;;;5033618;28;20523;-80
2023/12/24 10:53:07;;;;;;;6.00;3.67;;;;;;;;;;5033007;28;20559;-79
2023/12/24 10:55:35;;;;;;;7.53;2.43;;;;;;;;;;5033586;28;20543;-79
2023/12/24 10:58:05;;;;;;;5.70;3.20;;;;;;;;;;5031551;28;20468;-80
2023/12/24 11:00:31;;;;;;;4.93;2.77;;;;;;;;;;5033768;28;20516;-79
2023/12/24 11:02:59;;;;;;;3.87;2.97;;;;;;;;;;5032837;28;20547;-79
2023/12/24 11:05:45;;;;;;;4.23;2.90;;;;;;;;;;5033371;28;20551;-81
2023/12/24 11:08:27;;;;;;;7.60;4.10;;;;;;;;;;5033101;28;20477;-79
2023/12/24 11:10:54;;;;;;;4.00;2.63;;;;;;;;;;5033090;28;20990;-80
2023/12/24 11:13:41;;;;;;;6.63;4.30;;;;;;;;;;5033008;28;20880;-79
2023/12/24 11:16:09;;;;;;;10.10;8.67;;;;;;;;;;5036378;28;20535;-80
2023/12/24 11:18:43;;;;;;;6.63;3.87;;;;;;;;;;5032775;28;20484;-79
2023/12/24 11:21:10;;;;;;;10.17;5.37;;;;;;;;;;5033353;28;20444;-80
2023/12/24 11:23:38;;;;;;;7.17;3.37;;;;;;;;;;5032333;28;20528;-80
2023/12/24 11:26:29;;;;;;;6.20;2.90;;;;;;;;;;5033011;28;20539;-79
2023/12/24 11:28:55;;;;;;;4.30;2.73;;;;;;;;;;5033028;28;20483;-80
2023/12/24 11:31:24;;;;;;;5.87;3.83;;;;;;;;;;5033117;28;20504;-80
2023/12/24 11:33:51;;;;;;;8.00;4.10;;;;;;;;;;5032793;28;20821;-80
2023/12/24 11:36:18;;;;;;;7.03;3.93;;;;;;;;;;5032885;28;20947;-80
2023/12/24 11:38:46;;;;;;;4.10;3.00;;;;;;;;;;5034315;28;20885;-79
2023/12/24 11:41:14;;;;;;;11.63;3.23;;;;;;;;;;5037029;28;20472;-79
2023/12/24 11:43:41;;;;;;;5.80;2.63;;;;;;;;;;5038321;28;20480;-83
2023/12/24 11:46:08;;;;;;;3.80;2.40;;;;;;;;;;5038151;28;20479;-81
2023/12/24 11:48:36;;;;;;;4.53;3.00;;;;;;;;;;5036472;28;20477;-80
2023/12/24 11:51:03;;;;;;;9.90;2.60;;;;;;;;;;5040931;28;20424;-82
2023/12/24 11:53:30;;;;;;;7.90;3.20;;;;;;;;;;5037798;28;20479;-82
2023/12/24 11:56:05;;;;;;;7.47;4.47;;;;;;;;;;5037161;28;20492;-81
2023/12/24 11:58:31;;;;;;;4.13;3.50;;;;;;;;;;5036773;28;20558;-82
2023/12/24 12:00:58;;;;;;;3.17;2.63;;;;;;;;;;5036788;28;20781;-82
2023/12/24 12:03:25;;;;;;;8.13;2.90;;;;;;;;;;5036569;28;20933;-79
2023/12/24 12:05:51;;;;;;;3.67;2.43;;;;;;;;;;5036832;28;20543;-82
2023/12/24 12:08:18;;;;;;;3.70;1.97;;;;;;;;;;5036486;28;21055;-80
2023/12/24 12:10:44;;;;;;;5.83;2.27;;;;;;;;;;5036671;28;20527;-81
2023/12/24 12:13:12;;;;;;;7.90;4.87;;;;;;;;;;5036407;28;20547;-81
2023/12/24 12:15:39;;;;;;;5.70;3.00;;;;;;;;;;5036344;28;20543;-81
2023/12/24 12:18:05;;;;;;;10.20;5.50;;;;;;;;;;5036289;28;20551;-81
2023/12/24 12:20:32;;;;;;;2.40;1.90;;;;;;;;;;5036187;28;20523;-81
2023/12/24 12:22:58;;;;;;;6.53;2.17;;;;;;;;;;5036110;28;20472;-81
2023/12/24 12:25:25;;;;;;;4.20;3.40;;;;;;;;;;5036277;28;20556;-81
2023/12/24 12:27:51;;;;;;;2.97;1.60;;;;;;;;;;5035896;28;20579;-81
2023/12/24 12:30:21;;;;;;;6.03;3.80;;;;;;;;;;5036338;28;20523;-81
2023/12/24 12:32:48;;;;;;;4.27;1.63;;;;;;;;;;5034189;28;20555;-81
2023/12/24 12:35:14;;;;;;;7.60;5.70;;;;;;;;;;5036014;28;20551;-81
2023/12/24 12:37:41;;;;;;;15.90;6.50;;;;;;;;;;5035643;28;20564;-81
2023/12/24 12:40:08;;;;;;;8.20;2.60;;;;;;;;;;5035721;28;20527;-80
2023/12/24 12:42:34;;;;;;;6.70;3.50;;;;;;;;;;5035759;28;20483;-81
2023/12/24 12:45:01;;;;;;;7.00;4.50;;;;;;;;;;5035560;28;20551;-81
2023/12/24 12:47:29;;;;;;;5.97;4.23;;;;;;;;;;5035156;28;21054;-81
2023/12/24 12:49:55;;;;;;;3.73;3.30;;;;;;;;;;5035345;28;20976;-81
2023/12/24 12:52:22;;;;;;;6.87;4.00;;;;;;;;;;5035747;28;20560;-81
2023/12/24 12:54:48;;;;;;;9.17;4.00;;;;;;;;;;5036550;28;21009;-80
2023/12/24 12:57:27;;;;;;;6.30;4.30;;;;;;;;;;5035784;28;20552;-81
2023/12/24 13:00:00;;;;;;;6.23;4.33;;;;;;;;;;5036283;28;20488;-79
2023/12/24 13:02:27;;;;;;;6.50;5.80;;;;;;;;;;5035532;28;20548;-81
2023/12/24 13:04:55;;;;;;;6.50;5.37;;;;;;;;;;5035566;28;20494;-79
2023/12/24 13:07:29;;;;;;;5.67;5.00;;;;;;;;;;5035834;28;20543;-80
2023/12/24 13:09:55;;;;;;;5.17;4.43;;;;;;;;;;5035659;28;20472;-80
2023/12/24 13:12:21;;;;;;;7.40;3.63;;;;;;;;;;5034693;28;20564;-82
2023/12/24 13:14:52;;;;;;;10.40;4.70;;;;;;;;;;5035700;28;20535;-82
2023/12/24 13:17:22;;;;;;;5.20;3.70;;;;;;;;;;5035249;28;20446;-81
2023/12/24 13:19:49;;;;;;;7.97;4.50;;;;;;;;;;5036019;28;20444;-80
2023/12/24 13:22:16;;;;;;;11.67;4.00;;;;;;;;;;5035077;28;20543;-80
2023/12/24 13:24:43;;;;;;;4.50;3.67;;;;;;;;;;5035022;28;20553;-80
2023/12/24 13:27:09;;;;;;;5.20;3.00;;;;;;;;;;5035059;28;20498;-80
2023/12/24 13:29:36;;;;;;;8.00;5.77;;;;;;;;;;5035261;28;20539;-80
2023/12/24 13:32:02;;;;;;;5.43;4.60;;;;;;;;;;5035120;28;20473;-80
2023/12/24 13:34:29;;;;;;;3.77;3.47;;;;;;;;;;5035136;28;20531;-79
2023/12/24 13:36:55;;;;;;;2.70;2.30;;;;;;;;;;5034895;28;20559;-80
2023/12/24 13:39:23;;;;;;;5.97;4.03;;;;;;;;;;5035043;28;20423;-80
2023/12/24 13:41:50;;;;;;;7.60;4.37;;;;;;;;;;5034468;28;20548;-81
2023/12/24 13:44:17;;;;;;;6.27;3.60;;;;;;;;;;5034248;28;20914;-81
2023/12/24 13:46:43;;;;;;;5.40;3.43;;;;;;;;;;5034490;28;20506;-80
2023/12/24 13:49:09;;;;;;;9.63;6.50;;;;;;;;;;5035550;28;20502;-79
2023/12/24 13:51:37;;;;;;;3.63;3.33;;;;;;;;;;5034655;28;20523;-79
2023/12/24 13:54:03;;;;;;;4.50;4.10;;;;;;;;;;5034264;28;20881;-79
2023/12/24 13:56:32;;;;;;;7.93;5.10;;;;;;;;;;5034342;28;20451;-80
2023/12/24 13:58:58;;;;;;;2.50;2.10;;;;;;;;;;5034400;28;20869;-79
2023/12/24 14:01:25;;;;;;;7.30;2.73;;;;;;;;;;5033087;28;20963;-80
2023/12/24 14:03:51;;;;;;;3.57;2.10;;;;;;;;;;5034532;28;20534;-80
2023/12/24 14:06:18;;;;;;;6.13;2.93;;;;;;;;;;5034588;28;20523;-79
2023/12/24 14:08:44;;;;;;;2.10;1.90;;;;;;;;;;5033735;28;20556;-80
2023/12/24 14:11:10;;;;;;;3.00;1.83;;;;;;;;;;5034007;28;20512;-79
2023/12/24 14:13:38;;;;;;;3.60;2.23;;;;;;;;;;5033612;28;20526;-80
2023/12/24 14:16:05;;;;;;;3.87;2.43;;;;;;;;;;5034109;28;20457;-80
2023/12/24 14:18:31;;;;;;;1.77;1.67;;;;;;;;;;5033663;28;20563;-80
2023/12/24 14:20:58;;;;;;;5.40;3.40;;;;;;;;;;5033812;28;21003;-79
2023/12/24 14:23:24;;;;;;;5.20;3.80;;;;;;;;;;5033154;28;21093;-81
2023/12/24 14:25:51;;;;;;;10.20;4.60;;;;;;;;;;5033946;28;20555;-81
2023/12/24 14:28:17;;;;;;;4.80;3.40;;;;;;;;;;5033214;28;20555;-80
2023/12/24 14:30:47;;;;;;;6.77;3.00;;;;;;;;;;5033909;28;20469;-80
2023/12/24 14:33:14;;;;;;;7.20;3.27;;;;;;;;;;5033229;28;20531;-81
2023/12/24 14:35:40;;;;;;;5.30;4.57;;;;;;;;;;5033794;28;20564;-79
2023/12/24 14:38:07;;;;;;;8.00;4.23;;;;;;;;;;5033543;28;21041;-81
2023/12/24 14:40:33;;;;;;;6.43;3.50;;;;;;;;;;5033520;28;20494;-81
2023/12/24 14:43:00;;;;;;;8.33;4.57;;;;;;;;;;5032953;28;20483;-81